Terminal Aerodrome Forecast
Issued by NWS Wilmington, OH

Home | Current Version | Previous Version | Text Only | Print | Product List | Glossary On
Versions: 1 2 3 4 5 6 7 8 9 10 11 12 13 14
624
FTUS41 KILN 241727
TAFCMH
TAF
KCMH 241727Z 2418/2518 08010KT P6SM -SHRA BKN012 OVC035
     FM241900 07009KT 5SM -SHRA BR BKN009 OVC012
     FM250600 36008KT 4SM -SHRA BR OVC009
     FM250900 35008KT 3SM BR VCSH OVC008=

USA.gov is the U.S. government's official web portal to all federal, state and local government web resources and services.